createdAt,value
2023-01-12T00:00:34.901Z,1.9
2023-01-12T00:01:35.465Z,2.1
2023-01-12T00:02:36.089Z,2.2
2023-01-12T00:03:36.668Z,2.3
2023-01-12T00:04:37.300Z,1.9
2023-01-12T00:05:37.863Z,2.7
2023-01-12T00:06:38.451Z,2.4
2023-01-12T00:07:39.043Z,2.6
2023-01-12T00:08:39.640Z,2.6
2023-01-12T00:09:40.243Z,2.1
2023-01-12T00:10:40.840Z,1.9
2023-01-12T00:11:41.432Z,2.9
2023-01-12T00:12:42.054Z,2.8
2023-01-12T00:13:42.641Z,2.3
2023-01-12T00:14:43.234Z,2.5
2023-01-12T00:15:43.828Z,2.9
2023-01-12T00:16:44.416Z,2.0
2023-01-12T00:17:45.008Z,2.4
2023-01-12T00:18:45.597Z,2.0
2023-01-12T00:19:46.190Z,2.4
2023-01-12T00:20:46.784Z,2.6
2023-01-12T00:21:47.375Z,2.2
2023-01-12T00:22:47.972Z,1.7
2023-01-12T00:23:48.561Z,2.5
2023-01-12T00:24:49.151Z,2.2
2023-01-12T00:25:49.745Z,1.9
2023-01-12T00:26:50.358Z,2.2
2023-01-12T00:27:50.951Z,1.9
2023-01-12T00:28:51.543Z,2.4
2023-01-12T00:29:52.136Z,2.3
2023-01-12T00:30:52.763Z,3.5
2023-01-12T00:31:53.348Z,2.3
2023-01-12T00:32:53.944Z,2.5
2023-01-12T00:33:54.529Z,2.8
2023-01-12T00:34:55.120Z,2.4
2023-01-12T00:35:55.720Z,2.5
2023-01-12T00:36:56.350Z,2.6
2023-01-12T00:37:56.937Z,2.9
2023-01-12T00:38:57.532Z,2.5
2023-01-12T00:40:02.512Z,2.6
2023-01-12T00:40:59.729Z,2.1
2023-01-12T00:42:00.341Z,1.8
2023-01-12T00:43:00.937Z,2.0
2023-01-12T00:44:01.565Z,2.5
2023-01-12T00:45:02.115Z,2.2
2023-01-12T00:46:02.743Z,2.4
2023-01-12T00:47:03.301Z,2.2
2023-01-12T00:48:03.896Z,1.8
2023-01-12T00:49:04.508Z,2.5
2023-01-12T00:50:05.100Z,2.2
2023-01-12T00:51:05.693Z,2.2
2023-01-12T00:52:06.287Z,2.2
2023-01-12T00:53:06.878Z,2.0
2023-01-12T00:54:07.490Z,2.1
2023-01-12T00:55:08.099Z,1.7
2023-01-12T00:56:08.681Z,2.1
2023-01-12T00:57:09.271Z,1.9
2023-01-12T00:58:09.868Z,1.6
2023-01-12T00:59:10.455Z,1.7
2023-01-12T01:00:11.056Z,1.7
2023-01-12T01:01:11.722Z,1.9
2023-01-12T01:02:12.389Z,1.8
2023-01-12T01:03:12.904Z,1.7
2023-01-12T01:04:13.496Z,1.9
2023-01-12T01:05:14.102Z,2.5
2023-01-12T01:06:14.683Z,2.3
2023-01-12T01:07:15.276Z,1.5
2023-01-12T01:08:15.870Z,1.3
2023-01-12T01:09:16.458Z,1.3
2023-01-12T01:10:17.061Z,1.4
2023-01-12T01:11:17.655Z,1.7
2023-01-12T01:12:18.287Z,1.8
2023-01-12T01:13:18.855Z,2.0
2023-01-12T01:14:19.447Z,1.3
2023-01-12T01:15:20.036Z,1.5
2023-01-12T01:16:20.788Z,4.8
2023-01-12T01:17:21.258Z,1.5
2023-01-12T01:18:21.862Z,1.8
2023-01-12T01:19:22.460Z,1.2
2023-01-12T01:20:23.046Z,1.4
2023-01-12T01:21:23.636Z,1.8
2023-01-12T01:22:24.231Z,1.9
2023-01-12T01:23:24.829Z,1.7
2023-01-12T01:24:25.429Z,1.7
2023-01-12T01:25:26.004Z,1.4
2023-01-12T01:26:26.603Z,1.8
2023-01-12T01:27:27.190Z,2.0
2023-01-12T01:28:27.787Z,2.2
2023-01-12T01:29:28.399Z,1.8
2023-01-12T01:30:28.992Z,1.6
2023-01-12T01:31:29.654Z,1.8
2023-01-12T01:32:30.211Z,2.1
2023-01-12T01:33:30.804Z,1.6
2023-01-12T01:34:31.395Z,2.5
2023-01-12T01:35:31.985Z,4.2
2023-01-12T01:36:32.577Z,2.5
2023-01-12T01:37:33.175Z,2.3
2023-01-12T01:38:33.783Z,2.9
2023-01-12T01:39:34.353Z,2.2
2023-01-12T01:40:34.944Z,2.7
2023-01-12T01:41:35.550Z,3.0
2023-01-12T01:42:36.128Z,2.6
2023-01-12T01:43:36.726Z,2.3
2023-01-12T01:44:37.322Z,3.7
2023-01-12T01:45:37.917Z,3.6
2023-01-12T01:46:38.606Z,2.8
2023-01-12T01:47:39.162Z,2.4
2023-01-12T01:48:39.753Z,5.0
2023-01-12T01:49:40.343Z,2.5
2023-01-12T01:50:40.947Z,2.5
2023-01-12T01:51:41.559Z,5.5
2023-01-12T01:52:42.149Z,3.3
2023-01-12T01:53:42.744Z,3.2
2023-01-12T01:54:43.338Z,2.4
2023-01-12T01:55:43.939Z,2.6
2023-01-12T01:56:44.524Z,2.5
2023-01-12T01:57:45.118Z,2.9
2023-01-12T01:58:45.718Z,2.7
2023-01-12T01:59:46.338Z,2.6
2023-01-12T02:00:47.056Z,3.7
2023-01-12T02:01:47.652Z,2.5
2023-01-12T02:02:48.304Z,3.4
2023-01-12T02:03:48.815Z,3.1
2023-01-12T02:04:49.417Z,2.8
2023-01-12T02:05:50.040Z,2.5
2023-01-12T02:06:50.613Z,2.9
2023-01-12T02:07:51.203Z,2.9
2023-01-12T02:08:51.795Z,3.2
2023-01-12T02:09:52.410Z,2.5
2023-01-12T02:10:53.007Z,3.1
2023-01-12T02:11:53.597Z,2.5
2023-01-12T02:12:54.193Z,3.4
2023-01-12T02:13:54.780Z,2.4
2023-01-12T02:14:55.376Z,2.8
2023-01-12T02:15:55.978Z,2.7
2023-01-12T02:16:56.561Z,3.2
2023-01-12T02:17:57.152Z,2.4
2023-01-12T02:18:57.767Z,3.3
2023-01-12T02:19:58.337Z,3.2
2023-01-12T02:20:58.937Z,2.8
2023-01-12T02:21:59.525Z,2.5
2023-01-12T02:23:00.144Z,2.6
2023-01-12T02:24:00.731Z,2.7
2023-01-12T02:25:01.318Z,2.4
2023-01-12T02:26:01.915Z,2.6
2023-01-12T02:27:02.527Z,2.1
2023-01-12T02:28:03.130Z,2.5
2023-01-12T02:29:03.712Z,1.9
2023-01-12T02:30:04.328Z,2.7
2023-01-12T02:31:04.935Z,2.8
2023-01-12T02:32:05.510Z,2.1
2023-01-12T02:33:06.106Z,2.2
2023-01-12T02:34:06.697Z,2.2
2023-01-12T02:35:07.290Z,2.2
2023-01-12T02:36:07.879Z,2.7
2023-01-12T02:37:08.472Z,2.4
2023-01-12T02:38:09.062Z,2.1
2023-01-12T02:39:09.658Z,3.3
2023-01-12T02:40:10.247Z,1.9
2023-01-12T02:41:10.848Z,2.2
2023-01-12T02:42:11.433Z,2.2
2023-01-12T02:43:12.044Z,2.0
2023-01-12T02:44:12.641Z,1.9
2023-01-12T02:45:13.250Z,2.1
2023-01-12T02:46:13.851Z,2.6
2023-01-12T02:47:14.445Z,2.6
2023-01-12T02:48:15.050Z,1.8
2023-01-12T02:49:15.661Z,2.3
2023-01-12T02:50:16.251Z,2.3
2023-01-12T02:51:16.888Z,2.7
2023-01-12T02:52:17.508Z,2.9
2023-01-12T02:53:18.090Z,2.4
2023-01-12T02:54:18.673Z,2.9
2023-01-12T02:55:19.292Z,3.0
2023-01-12T02:56:19.880Z,2.6
2023-01-12T02:57:20.489Z,2.8
2023-01-12T02:58:21.083Z,3.0
2023-01-12T02:59:21.671Z,2.8
2023-01-12T03:00:22.415Z,2.8
2023-01-12T03:01:23.059Z,2.7
2023-01-12T03:02:23.647Z,2.4
2023-01-12T03:03:24.235Z,2.7
2023-01-12T03:04:24.846Z,2.6
2023-01-12T03:05:25.437Z,2.8
2023-01-12T03:06:26.042Z,2.4
2023-01-12T03:07:26.653Z,2.8
2023-01-12T03:08:27.267Z,3.1
2023-01-12T03:09:27.857Z,2.9
2023-01-12T03:10:28.448Z,3.0
2023-01-12T03:11:29.039Z,3.1
2023-01-12T03:12:29.638Z,2.7
2023-01-12T03:13:30.230Z,3.0
2023-01-12T03:14:30.828Z,3.1
2023-01-12T03:15:31.405Z,2.3
2023-01-12T03:16:32.090Z,2.3
2023-01-12T03:17:32.648Z,3.1
2023-01-12T03:18:33.265Z,3.4
2023-01-12T03:19:33.847Z,2.4
2023-01-12T03:20:34.444Z,2.9
2023-01-12T03:21:35.033Z,2.9
2023-01-12T03:22:36.473Z,3.3
2023-01-12T03:23:37.119Z,3.0
2023-01-12T03:24:37.706Z,3.1
2023-01-12T03:25:38.306Z,2.9
2023-01-12T03:26:38.893Z,3.1
2023-01-12T03:27:39.487Z,2.6
2023-01-12T03:28:40.130Z,3.0
2023-01-12T03:29:40.680Z,3.5
2023-01-12T03:30:41.270Z,3.1
2023-01-12T03:31:41.905Z,3.0
2023-01-12T03:32:42.470Z,3.1
2023-01-12T03:33:43.066Z,2.8
2023-01-12T03:34:43.675Z,3.1
2023-01-12T03:35:44.267Z,2.9
2023-01-12T03:36:44.857Z,4.1
2023-01-12T03:37:45.450Z,3.2
2023-01-12T03:38:46.041Z,3.5
2023-01-12T03:39:46.633Z,3.1
2023-01-12T03:40:47.226Z,3.2
2023-01-12T03:41:47.822Z,2.8
2023-01-12T03:42:48.414Z,3.0
2023-01-12T03:43:49.025Z,3.2
2023-01-12T03:44:49.616Z,3.2
2023-01-12T03:45:50.217Z,2.5
2023-01-12T03:46:50.878Z,3.2
2023-01-12T03:47:51.427Z,3.3
2023-01-12T03:48:52.029Z,2.6
2023-01-12T03:49:52.621Z,2.6
2023-01-12T03:50:53.213Z,3.3
2023-01-12T03:51:53.804Z,3.0
2023-01-12T03:52:54.402Z,3.2
2023-01-12T03:53:54.988Z,2.8
2023-01-12T03:54:55.577Z,2.9
2023-01-12T03:55:56.179Z,3.4
2023-01-12T03:56:56.780Z,2.8
2023-01-12T03:57:57.377Z,3.3
2023-01-12T03:58:57.986Z,2.3
2023-01-12T03:59:58.596Z,2.9
2023-01-12T04:00:59.312Z,3.1
2023-01-12T04:01:59.969Z,3.6
2023-01-12T04:03:00.583Z,2.8
2023-01-12T04:04:01.137Z,2.8
2023-01-12T04:05:01.727Z,2.6
2023-01-12T04:06:02.321Z,3.1
2023-01-12T04:07:02.934Z,3.1
2023-01-12T04:08:03.525Z,2.9
2023-01-12T04:09:04.117Z,2.6
2023-01-12T04:10:04.708Z,3.4
2023-01-12T04:11:05.307Z,2.9
2023-01-12T04:12:05.916Z,2.9
2023-01-12T04:13:06.523Z,2.3
2023-01-12T04:14:07.166Z,2.8
2023-01-12T04:15:07.726Z,2.7
2023-01-12T04:16:08.366Z,2.6
2023-01-12T04:17:08.935Z,2.7
2023-01-12T04:18:09.523Z,2.5
2023-01-12T04:19:10.114Z,2.6
2023-01-12T04:20:10.708Z,2.6
2023-01-12T04:21:11.298Z,2.6
2023-01-12T04:22:11.891Z,2.3
2023-01-12T04:23:12.485Z,2.3
2023-01-12T04:24:13.080Z,2.4
2023-01-12T04:25:13.679Z,2.4
2023-01-12T04:26:14.260Z,2.6
2023-01-12T04:27:14.853Z,2.2
2023-01-12T04:28:15.455Z,3.0
2023-01-12T04:29:16.040Z,2.5
2023-01-12T04:30:16.627Z,2.4
2023-01-12T04:31:17.256Z,2.8
2023-01-12T04:32:17.838Z,3.2
2023-01-12T04:33:18.426Z,2.3
2023-01-12T04:34:19.017Z,2.6
2023-01-12T04:35:19.610Z,2.3
2023-01-12T04:36:20.201Z,2.3
2023-01-12T04:37:20.792Z,2.1
2023-01-12T04:38:21.395Z,2.2
2023-01-12T04:39:21.978Z,2.7
2023-01-12T04:40:22.571Z,2.6
2023-01-12T04:41:23.162Z,3.2
2023-01-12T04:42:23.777Z,3.1
2023-01-12T04:43:24.365Z,2.3
2023-01-12T04:44:25.080Z,3.0
2023-01-12T04:45:25.588Z,2.1
2023-01-12T04:46:26.175Z,2.3
2023-01-12T04:47:26.771Z,2.4
2023-01-12T04:48:27.361Z,3.2
2023-01-12T04:49:27.957Z,2.6
2023-01-12T04:50:28.564Z,2.3
2023-01-12T04:51:29.157Z,2.3
2023-01-12T04:52:29.753Z,2.3
2023-01-12T04:53:30.397Z,2.3
2023-01-12T04:54:30.961Z,2.5
2023-01-12T04:55:31.555Z,2.3
2023-01-12T04:56:32.165Z,2.4
2023-01-12T04:57:32.765Z,2.3
2023-01-12T04:58:33.382Z,1.8
2023-01-12T04:59:33.955Z,2.2
2023-01-12T05:00:34.536Z,2.2
2023-01-12T05:01:35.195Z,2.3
2023-01-12T05:02:35.799Z,1.9
2023-01-12T05:03:36.388Z,2.2
2023-01-12T05:04:36.993Z,1.6
2023-01-12T05:05:37.589Z,1.8
2023-01-12T05:06:38.182Z,4.6
2023-01-12T05:07:38.790Z,1.7
2023-01-12T05:08:39.379Z,2.0
2023-01-12T05:09:39.982Z,2.1
2023-01-12T05:10:40.573Z,2.0
2023-01-12T05:11:41.157Z,2.0
2023-01-12T05:12:41.748Z,1.9
2023-01-12T05:13:42.338Z,1.8
2023-01-12T05:14:42.953Z,1.6
2023-01-12T05:15:43.550Z,1.6
2023-01-12T05:16:44.168Z,1.6
2023-01-12T05:17:44.744Z,2.6
2023-01-12T05:18:45.340Z,1.5
2023-01-12T05:19:45.927Z,1.7
2023-01-12T05:20:46.518Z,1.8
2023-01-12T05:21:47.109Z,2.2
2023-01-12T05:22:47.702Z,1.6
2023-01-12T05:23:48.295Z,1.8
2023-01-12T05:24:48.882Z,1.7
2023-01-12T05:25:49.475Z,1.7
2023-01-12T05:26:50.065Z,1.6
2023-01-12T05:27:50.660Z,2.4
2023-01-12T05:28:51.265Z,1.6
2023-01-12T05:29:51.841Z,1.7
2023-01-12T05:30:52.454Z,1.7
2023-01-12T05:31:53.225Z,1.5
2023-01-12T05:32:53.820Z,1.4
2023-01-12T05:33:54.408Z,1.7
2023-01-12T05:34:55.031Z,1.6
2023-01-12T05:35:55.613Z,1.7
2023-01-12T05:36:56.210Z,1.4
2023-01-12T05:37:56.834Z,1.7
2023-01-12T05:38:57.408Z,1.8
2023-01-12T05:39:58.002Z,1.5
2023-01-12T05:40:58.590Z,1.3
2023-01-12T05:41:59.184Z,1.2
2023-01-12T05:42:59.774Z,1.6
2023-01-12T05:44:00.380Z,1.3
2023-01-12T05:45:01.024Z,1.1
2023-01-12T05:46:01.586Z,1.3
2023-01-12T05:47:02.186Z,1.7
2023-01-12T05:48:02.774Z,3.1
2023-01-12T05:49:03.368Z,2.0
2023-01-12T05:50:03.960Z,1.8
2023-01-12T05:51:04.555Z,1.3
2023-01-12T05:52:05.164Z,1.2
2023-01-12T05:53:05.760Z,1.6
2023-01-12T05:54:06.363Z,1.2
2023-01-12T05:55:06.966Z,1.8
2023-01-12T05:56:07.563Z,1.0
2023-01-12T05:57:08.163Z,1.0
2023-01-12T05:58:08.758Z,1.3
2023-01-12T05:59:09.362Z,1.1
2023-01-12T06:00:09.952Z,1.3
2023-01-12T06:01:10.602Z,1.3
2023-01-12T06:02:11.232Z,1.4
2023-01-12T06:03:11.759Z,1.0
2023-01-12T06:04:12.352Z,1.3
2023-01-12T06:05:12.950Z,1.3
2023-01-12T06:06:13.554Z,1.0
2023-01-12T06:07:14.155Z,1.5
2023-01-12T06:08:14.738Z,1.3
2023-01-12T06:09:15.331Z,1.9
2023-01-12T06:10:15.924Z,0.8
2023-01-12T06:11:16.513Z,1.5
2023-01-12T06:12:17.116Z,1.0
2023-01-12T06:13:17.720Z,1.1
2023-01-12T06:14:18.314Z,0.9
2023-01-12T06:15:18.916Z,1.0
2023-01-12T06:16:19.559Z,0.8
2023-01-12T06:17:20.153Z,1.0
2023-01-12T06:18:20.746Z,1.2
2023-01-12T06:19:21.335Z,0.8
2023-01-12T06:20:21.927Z,0.7
2023-01-12T06:21:22.516Z,1.0
2023-01-12T06:22:23.115Z,1.0
2023-01-12T06:23:23.710Z,1.0
2023-01-12T06:24:24.307Z,0.8
2023-01-12T06:25:24.898Z,1.0
2023-01-12T06:26:25.492Z,1.1
2023-01-12T06:27:26.097Z,1.0
2023-01-12T06:28:26.677Z,1.0
2023-01-12T06:29:27.288Z,1.7
2023-01-12T06:30:27.932Z,0.8
2023-01-12T06:31:28.574Z,0.7
2023-01-12T06:32:29.110Z,0.9
2023-01-12T06:33:29.694Z,0.9
2023-01-12T06:34:30.287Z,0.9
2023-01-12T06:35:30.885Z,0.8
2023-01-12T06:36:31.471Z,1.2
2023-01-12T06:37:32.061Z,0.8
2023-01-12T06:38:32.669Z,1.0
2023-01-12T06:39:33.242Z,0.9
2023-01-12T06:40:33.841Z,0.9
2023-01-12T06:41:34.463Z,0.7
2023-01-12T06:42:35.041Z,0.6
2023-01-12T06:43:35.633Z,0.5
2023-01-12T06:44:36.231Z,0.6
2023-01-12T06:45:36.820Z,0.8
2023-01-12T06:46:37.495Z,0.8
2023-01-12T06:47:38.035Z,0.8
2023-01-12T06:48:39.596Z,0.9
2023-01-12T06:49:40.193Z,0.7
2023-01-12T06:50:40.796Z,0.8
2023-01-12T06:51:41.398Z,0.7
2023-01-12T06:52:41.989Z,0.7
2023-01-12T06:53:42.603Z,0.8
2023-01-12T06:54:43.196Z,0.5
2023-01-12T06:55:43.787Z,0.6
2023-01-12T06:56:44.378Z,0.5
2023-01-12T06:57:44.971Z,0.8
2023-01-12T06:58:45.574Z,0.8
2023-01-12T06:59:46.158Z,0.6
2023-01-12T07:00:46.877Z,0.9
2023-01-12T07:01:47.426Z,1.1
2023-01-12T07:02:47.967Z,1.1
2023-01-12T07:03:48.585Z,1.0
2023-01-12T07:04:49.246Z,0.6
2023-01-12T07:05:49.814Z,0.7
2023-01-12T07:06:50.431Z,0.5
2023-01-12T07:07:51.020Z,0.5
2023-01-12T07:08:51.629Z,0.6
2023-01-12T07:09:52.221Z,0.8
2023-01-12T07:10:52.813Z,0.5
2023-01-12T07:11:53.405Z,0.4
2023-01-12T07:12:54.011Z,0.5
2023-01-12T07:13:54.589Z,0.6
2023-01-12T07:14:55.181Z,0.6
2023-01-12T07:15:55.810Z,0.7
2023-01-12T07:16:56.371Z,0.5
2023-01-12T07:17:56.962Z,0.5
2023-01-12T07:18:57.554Z,0.6
2023-01-12T07:19:58.147Z,0.7
2023-01-12T07:20:58.740Z,0.7
2023-01-12T07:21:59.333Z,0.7
2023-01-12T07:22:59.940Z,0.7
2023-01-12T07:24:00.524Z,0.5
2023-01-12T07:25:01.114Z,0.6
2023-01-12T07:26:01.709Z,0.5
2023-01-12T07:27:02.302Z,0.7
2023-01-12T07:28:02.897Z,0.8
2023-01-12T07:29:03.493Z,0.5
2023-01-12T07:30:04.081Z,0.5
2023-01-12T07:31:04.830Z,0.4
2023-01-12T07:32:05.290Z,0.5
2023-01-12T07:33:05.899Z,0.4
2023-01-12T07:34:06.495Z,0.6
2023-01-12T07:35:07.088Z,0.6
2023-01-12T07:36:07.690Z,0.5
2023-01-12T07:37:08.278Z,0.6
2023-01-12T07:38:09.618Z,0.6
2023-01-12T07:39:10.215Z,0.5
2023-01-12T07:40:10.809Z,0.4
2023-01-12T07:41:11.406Z,0.5
2023-01-12T07:42:12.007Z,0.8
2023-01-12T07:43:12.601Z,0.5
2023-01-12T07:44:13.206Z,0.5
2023-01-12T07:45:13.824Z,0.5
2023-01-12T07:46:14.454Z,0.5
2023-01-12T07:47:15.037Z,0.4
2023-01-12T07:48:15.631Z,0.5
2023-01-12T07:49:16.238Z,0.5
2023-01-12T07:50:16.840Z,0.4
2023-01-12T07:51:17.453Z,0.5
2023-01-12T07:52:18.047Z,0.6
2023-01-12T07:53:18.643Z,0.5
2023-01-12T07:54:19.237Z,0.5
2023-01-12T07:55:19.861Z,0.4
2023-01-12T07:56:20.475Z,0.6
2023-01-12T07:57:21.058Z,0.4
2023-01-12T07:58:21.695Z,0.5
2023-01-12T07:59:22.270Z,0.5
2023-01-12T08:00:22.883Z,0.5
2023-01-12T08:01:23.710Z,0.4
2023-01-12T08:02:24.258Z,0.5
2023-01-12T08:03:24.889Z,0.4
2023-01-12T08:04:25.482Z,0.6
2023-01-12T08:05:26.127Z,0.4
2023-01-12T08:06:26.696Z,0.5
2023-01-12T08:07:27.290Z,0.4
2023-01-12T08:08:27.883Z,0.6
2023-01-12T08:09:28.482Z,0.5
2023-01-12T08:10:29.076Z,0.4
2023-01-12T08:11:29.673Z,0.4
2023-01-12T08:12:30.290Z,0.4
2023-01-12T08:13:30.882Z,0.5
2023-01-12T08:14:31.482Z,0.5
2023-01-12T08:15:32.078Z,0.5
2023-01-12T08:16:32.732Z,0.5
2023-01-12T08:17:33.278Z,0.4
2023-01-12T08:18:33.881Z,0.4
2023-01-12T08:19:34.489Z,0.4
2023-01-12T08:20:35.083Z,0.5
2023-01-12T08:21:35.682Z,0.6
2023-01-12T08:22:36.276Z,0.4
2023-01-12T08:23:36.873Z,0.5
2023-01-12T08:24:37.469Z,0.5
2023-01-12T08:25:38.066Z,1.3
2023-01-12T08:26:38.662Z,0.5
2023-01-12T08:27:39.267Z,0.6
2023-01-12T08:28:39.857Z,0.4
2023-01-12T08:29:40.465Z,0.3
2023-01-12T08:30:41.055Z,0.5
2023-01-12T08:31:41.651Z,0.5
2023-01-12T08:32:42.268Z,0.4
2023-01-12T08:33:42.866Z,0.6
2023-01-12T08:34:43.486Z,0.4
2023-01-12T08:35:44.062Z,0.5
2023-01-12T08:36:44.772Z,0.4
2023-01-12T08:37:45.343Z,0.4
2023-01-12T08:38:45.935Z,0.4
2023-01-12T08:39:46.536Z,0.4
2023-01-12T08:40:47.130Z,0.4
2023-01-12T08:41:47.728Z,0.4
2023-01-12T08:42:48.324Z,0.4
2023-01-12T08:43:48.921Z,0.9
2023-01-12T08:44:49.516Z,0.4
2023-01-12T08:45:50.113Z,0.4
2023-01-12T08:46:50.742Z,0.4
2023-01-12T08:47:51.312Z,0.4
2023-01-12T08:48:51.906Z,0.3
2023-01-12T08:49:52.499Z,0.4
2023-01-12T08:50:53.095Z,0.5
2023-01-12T08:51:53.689Z,0.3
2023-01-12T08:52:54.376Z,0.5
2023-01-12T08:53:54.984Z,0.5
2023-01-12T08:54:55.589Z,0.4
2023-01-12T08:55:56.192Z,0.4
2023-01-12T08:56:56.800Z,0.3
2023-01-12T08:57:57.402Z,0.8
2023-01-12T08:58:58.015Z,0.5
2023-01-12T08:59:58.634Z,0.4
2023-01-12T09:00:59.351Z,0.4
2023-01-12T09:02:00.044Z,0.4
2023-01-12T09:03:00.624Z,0.4
2023-01-12T09:04:01.219Z,0.4
2023-01-12T09:05:01.861Z,0.4
2023-01-12T09:06:02.447Z,0.6
2023-01-12T09:07:03.045Z,0.3
2023-01-12T09:08:03.644Z,0.4
2023-01-12T09:09:04.236Z,0.4
2023-01-12T09:10:04.851Z,0.5
2023-01-12T09:11:05.468Z,0.4
2023-01-12T09:12:06.063Z,0.4
2023-01-12T09:13:06.683Z,0.4
2023-01-12T09:14:07.276Z,0.5
2023-01-12T09:15:07.882Z,0.6
2023-01-12T09:16:12.569Z,0.4
2023-01-12T09:17:10.063Z,0.4
2023-01-12T09:18:10.657Z,0.5
2023-01-12T09:19:11.263Z,0.4
2023-01-12T09:20:11.850Z,0.6
2023-01-12T09:21:12.449Z,0.4
2023-01-12T09:22:13.042Z,0.4
2023-01-12T09:23:13.647Z,0.4
2023-01-12T09:24:14.239Z,0.8
2023-01-12T09:25:14.853Z,0.4
2023-01-12T09:26:15.468Z,0.4
2023-01-12T09:27:16.066Z,0.5
2023-01-12T09:28:16.663Z,0.4
2023-01-12T09:29:17.262Z,0.4
2023-01-12T09:30:17.856Z,0.4
2023-01-12T09:31:19.133Z,0.6
2023-01-12T09:32:22.973Z,0.4
2023-01-12T09:33:22.865Z,0.5
2023-01-12T09:34:22.927Z,0.6
2023-01-12T09:35:23.527Z,0.5
2023-01-12T09:36:24.143Z,0.5
2023-01-12T09:37:24.739Z,0.5
2023-01-12T09:38:25.355Z,0.4
2023-01-12T09:39:28.186Z,0.5
2023-01-12T09:40:27.419Z,0.5
2023-01-12T09:41:28.039Z,0.5
2023-01-12T09:42:28.635Z,0.4
2023-01-12T09:43:29.236Z,0.5
2023-01-12T09:44:29.830Z,0.7
2023-01-12T09:45:30.491Z,0.5
2023-01-12T09:46:31.099Z,0.5
2023-01-12T09:47:31.692Z,0.6
2023-01-12T09:48:32.281Z,0.5
2023-01-12T09:49:32.880Z,0.6
2023-01-12T09:50:33.489Z,0.5
2023-01-12T09:51:34.072Z,0.7
2023-01-12T09:52:34.669Z,0.7
2023-01-12T09:53:35.267Z,0.5
2023-01-12T09:54:35.866Z,0.8
2023-01-12T09:55:36.463Z,0.7
2023-01-12T09:56:37.081Z,0.6
2023-01-12T09:57:37.695Z,0.8
2023-01-12T09:58:38.293Z,0.8
2023-01-12T09:59:38.908Z,0.8
2023-01-12T10:00:39.525Z,0.6
2023-01-12T10:01:40.180Z,0.8
2023-01-12T10:02:40.969Z,0.8
2023-01-12T10:03:41.650Z,0.7
2023-01-12T10:04:42.216Z,0.6
2023-01-12T10:05:42.816Z,0.6
2023-01-12T10:06:43.419Z,0.8
2023-01-12T10:07:44.012Z,0.6
2023-01-12T10:08:44.611Z,1.0
2023-01-12T10:09:45.205Z,0.6
2023-01-12T10:10:45.801Z,0.7
2023-01-12T10:11:46.401Z,0.7
2023-01-12T10:12:46.994Z,0.7
2023-01-12T10:13:47.592Z,0.9
2023-01-12T10:14:48.224Z,0.9
2023-01-12T10:15:48.821Z,0.9
2023-01-12T10:16:49.454Z,0.8
2023-01-12T10:17:51.723Z,0.5
2023-01-12T10:18:53.346Z,0.7
2023-01-12T10:19:53.200Z,0.7
2023-01-12T10:20:53.792Z,0.7
2023-01-12T10:21:54.412Z,0.6
2023-01-12T10:22:55.009Z,0.6
2023-01-12T10:23:55.623Z,0.9
2023-01-12T10:24:56.221Z,0.5
2023-01-12T10:25:56.812Z,0.7
2023-01-12T10:26:57.435Z,0.7
2023-01-12T10:27:58.030Z,0.7
2023-01-12T10:28:58.627Z,0.6
2023-01-12T10:29:59.221Z,1.1
2023-01-12T10:30:59.816Z,1.2
2023-01-12T10:32:00.468Z,0.7
2023-01-12T10:33:01.033Z,0.9
2023-01-12T10:34:01.639Z,1.5
2023-01-12T10:35:02.233Z,0.9
2023-01-12T10:36:02.861Z,0.9
2023-01-12T10:37:03.450Z,0.9
2023-01-12T10:38:04.047Z,1.0
2023-01-12T10:39:04.667Z,1.0
2023-01-12T10:40:05.271Z,1.1
2023-01-12T10:41:05.868Z,0.9
2023-01-12T10:42:06.497Z,1.0
2023-01-12T10:43:12.315Z,0.9
2023-01-12T10:44:07.699Z,1.2
2023-01-12T10:45:08.284Z,1.1
2023-01-12T10:46:08.928Z,1.3
2023-01-12T10:47:09.512Z,1.2
2023-01-12T10:48:10.103Z,1.3
2023-01-12T10:49:10.699Z,1.1
2023-01-12T10:50:11.301Z,1.2
2023-01-12T10:51:11.899Z,1.2
2023-01-12T10:52:12.496Z,1.6
2023-01-12T10:53:13.089Z,1.4
2023-01-12T10:54:13.681Z,1.4
2023-01-12T10:55:14.280Z,1.8
2023-01-12T10:56:14.907Z,1.4
2023-01-12T10:57:15.497Z,1.5
2023-01-12T10:58:16.094Z,1.5
2023-01-12T10:59:16.708Z,1.8
2023-01-12T11:00:17.304Z,1.8
2023-01-12T11:01:17.993Z,1.8
2023-01-12T11:02:18.743Z,2.0
2023-01-12T11:03:19.310Z,1.7
2023-01-12T11:04:19.921Z,2.5
2023-01-12T11:05:20.508Z,1.9
2023-01-12T11:06:21.109Z,1.6
2023-01-12T11:07:21.707Z,1.8
2023-01-12T11:08:22.310Z,1.8
2023-01-12T11:09:22.915Z,2.3
2023-01-12T11:10:23.500Z,1.8
2023-01-12T11:11:24.100Z,1.9
2023-01-12T11:12:24.696Z,1.8
2023-01-12T11:13:25.308Z,1.6
2023-01-12T11:14:25.908Z,1.8
2023-01-12T11:15:26.536Z,2.3
2023-01-12T11:16:27.138Z,2.0
2023-01-12T11:17:27.722Z,2.4
2023-01-12T11:18:28.320Z,1.9
2023-01-12T11:19:28.919Z,1.6
2023-01-12T11:20:29.518Z,1.8
2023-01-12T11:21:30.137Z,1.7
2023-01-12T11:22:30.734Z,1.6
2023-01-12T11:23:31.330Z,1.7
2023-01-12T11:24:31.935Z,2.0
2023-01-12T11:25:32.557Z,1.9
2023-01-12T11:26:33.155Z,1.9
2023-01-12T11:27:33.777Z,1.8
2023-01-12T11:28:34.388Z,1.8
2023-01-12T11:29:34.991Z,1.6
2023-01-12T11:30:35.650Z,1.7
2023-01-12T11:31:36.228Z,1.6
2023-01-12T11:32:36.849Z,1.7
2023-01-12T11:33:37.470Z,1.5
2023-01-12T11:34:38.085Z,1.5
2023-01-12T11:35:38.691Z,1.6
2023-01-12T11:36:39.286Z,1.5
2023-01-12T11:37:39.897Z,1.8
2023-01-12T11:38:40.496Z,1.4
2023-01-12T11:39:41.105Z,1.6
2023-01-12T11:40:41.714Z,1.3
2023-01-12T11:41:42.306Z,1.9
2023-01-12T11:42:42.906Z,1.7
2023-01-12T11:43:43.499Z,1.8
2023-01-12T11:44:44.096Z,1.9
2023-01-12T11:45:44.742Z,1.8
2023-01-12T11:46:45.311Z,1.8
2023-01-12T11:47:45.906Z,1.5
2023-01-12T11:48:46.505Z,2.0
2023-01-12T11:49:47.108Z,1.6
2023-01-12T11:50:47.773Z,1.9
2023-01-12T11:51:48.336Z,1.8
2023-01-12T11:52:48.934Z,1.8
2023-01-12T11:53:49.530Z,1.8
2023-01-12T11:54:50.142Z,1.8
2023-01-12T11:55:50.741Z,2.0
2023-01-12T11:56:51.373Z,2.1
2023-01-12T11:57:51.952Z,2.0
2023-01-12T11:58:52.528Z,1.9
2023-01-12T11:59:53.125Z,2.0
2023-01-12T12:00:53.771Z,1.9
2023-01-12T12:01:54.320Z,2.2
2023-01-12T12:02:54.919Z,2.1
2023-01-12T12:03:55.614Z,2.2
2023-01-12T12:04:56.171Z,2.0
2023-01-12T12:05:56.765Z,2.2
2023-01-12T12:06:57.364Z,2.2
2023-01-12T12:07:57.957Z,2.8
2023-01-12T12:08:58.556Z,2.1
2023-01-12T12:09:59.152Z,2.3
2023-01-12T12:10:59.755Z,3.3
2023-01-12T12:12:00.363Z,1.9
2023-01-12T12:13:00.962Z,1.8
2023-01-12T12:14:01.572Z,1.8
2023-01-12T12:15:02.165Z,3.4
2023-01-12T12:16:02.795Z,2.3
2023-01-12T12:17:03.398Z,2.1
2023-01-12T12:18:03.960Z,2.3
2023-01-12T12:19:04.567Z,2.0
2023-01-12T12:20:05.178Z,2.5
2023-01-12T12:21:05.801Z,2.1
2023-01-12T12:22:06.390Z,2.1
2023-01-12T12:23:07.006Z,2.2
2023-01-12T12:24:07.626Z,2.2
2023-01-12T12:25:08.243Z,2.0
2023-01-12T12:26:08.850Z,2.1
2023-01-12T12:27:09.438Z,2.3
2023-01-12T12:28:10.032Z,2.4
2023-01-12T12:29:10.635Z,2.4
2023-01-12T12:30:11.225Z,2.2
2023-01-12T12:31:11.857Z,2.0
2023-01-12T12:32:12.431Z,2.1
2023-01-12T12:33:13.020Z,2.0
2023-01-12T12:34:13.615Z,2.3
2023-01-12T12:35:14.210Z,2.3
2023-01-12T12:36:14.805Z,2.4
2023-01-12T12:37:15.403Z,2.4
2023-01-12T12:38:16.021Z,2.0
2023-01-12T12:39:16.619Z,2.3
2023-01-12T12:40:17.219Z,2.0
2023-01-12T12:41:17.837Z,2.3
2023-01-12T12:42:18.431Z,2.4
2023-01-12T12:43:19.021Z,2.2
2023-01-12T12:44:19.621Z,2.1
2023-01-12T12:45:20.219Z,2.0
2023-01-12T12:46:20.900Z,1.9
2023-01-12T12:47:21.671Z,2.2
2023-01-12T12:48:22.271Z,2.3
2023-01-12T12:49:22.867Z,2.2
2023-01-12T12:50:23.472Z,2.1
2023-01-12T12:51:24.062Z,2.0
2023-01-12T12:52:24.659Z,2.2
2023-01-12T12:53:25.257Z,2.0
2023-01-12T12:54:25.859Z,2.2
2023-01-12T12:55:26.463Z,2.0
2023-01-12T12:56:27.071Z,1.7
2023-01-12T12:57:27.669Z,2.1
2023-01-12T12:58:28.265Z,2.5
2023-01-12T12:59:28.863Z,2.2
2023-01-12T13:00:29.509Z,2.4
2023-01-12T13:01:30.134Z,1.7
2023-01-12T13:02:30.768Z,2.1
2023-01-12T13:03:31.362Z,2.1
2023-01-12T13:04:31.963Z,1.6
2023-01-12T13:05:32.581Z,2.1
2023-01-12T13:06:33.184Z,1.9
2023-01-12T13:07:33.779Z,1.9
2023-01-12T13:08:34.475Z,1.8
2023-01-12T13:09:35.017Z,1.9
2023-01-12T13:10:35.622Z,2.1
2023-01-12T13:11:36.202Z,2.1
2023-01-12T13:12:36.805Z,1.8
2023-01-12T13:13:37.427Z,1.9
2023-01-12T13:14:38.035Z,2.1
2023-01-12T13:15:38.693Z,2.0
2023-01-12T13:16:39.251Z,2.0
2023-01-12T13:17:39.866Z,1.6
2023-01-12T13:18:40.468Z,1.9
2023-01-12T13:19:41.099Z,1.9
2023-01-12T13:20:41.706Z,1.8
2023-01-12T13:21:42.328Z,1.7
2023-01-12T13:22:42.938Z,1.7
2023-01-12T13:23:43.522Z,1.7
2023-01-12T13:24:44.126Z,1.8
2023-01-12T13:25:44.725Z,1.6
2023-01-12T13:26:45.341Z,1.8
2023-01-12T13:27:45.948Z,1.7
2023-01-12T13:28:46.556Z,1.6
2023-01-12T13:29:47.172Z,1.5
2023-01-12T13:30:47.776Z,1.8
2023-01-12T13:31:48.366Z,1.8
2023-01-12T13:32:48.966Z,1.8
2023-01-12T13:33:49.579Z,1.8
2023-01-12T13:34:50.196Z,1.8
2023-01-12T13:35:50.795Z,1.9
2023-01-12T13:36:51.394Z,1.6
2023-01-12T13:37:51.986Z,1.9
2023-01-12T13:38:52.616Z,1.8
2023-01-12T13:39:53.234Z,1.8
2023-01-12T13:40:55.629Z,2.0
2023-01-12T13:41:55.422Z,1.6
2023-01-12T13:42:56.082Z,1.8
2023-01-12T13:43:56.852Z,2.0
2023-01-12T13:44:57.456Z,1.6
2023-01-12T13:45:58.045Z,1.7
2023-01-12T13:46:58.661Z,1.7
2023-01-12T13:47:59.283Z,2.0
2023-01-12T13:48:59.876Z,2.0
2023-01-12T13:50:00.480Z,1.9
2023-01-12T13:51:01.097Z,2.1
2023-01-12T13:52:01.688Z,1.9
2023-01-12T13:53:02.290Z,2.2
2023-01-12T13:54:02.905Z,2.1
2023-01-12T13:55:03.526Z,2.3